TimeEDT,TemperatureF,Dew PointF,Humidity,Sea Level PressureIn,VisibilityMPH,Wind Direction,Wind SpeedMPH,Gust SpeedMPH,PrecipitationIn,Events,Conditions,WindDirDegrees,DateUTC
12:15 AM,63.0,63.0,100,30.24,4.0,Calm,Calm,-,N/A,,Clear,0,2013-08-19 04:15:00
12:35 AM,62.6,62.6,100,30.23,1.8,Calm,Calm,-,N/A,,Mist,0,2013-08-19 04:35:00
12:55 AM,61.9,61.9,100,30.23,1.5,Calm,Calm,-,N/A,,Mist,0,2013-08-19 04:55:00
1:15 AM,61.7,61.7,100,30.23,4.0,Calm,Calm,-,N/A,,Clear,0,2013-08-19 05:15:00
1:35 AM,61.2,61.2,100,30.23,4.0,Calm,Calm,-,N/A,,Clear,0,2013-08-19 05:35:00
1:55 AM,61.3,61.3,100,30.22,5.0,Calm,Calm,-,N/A,,Clear,0,2013-08-19 05:55:00
2:15 AM,61.2,61.2,100,30.22,0.5,Calm,Calm,-,N/A,Fog,Fog,0,2013-08-19 06:15:00
2:35 AM,61.7,61.7,100,30.21,5.0,Calm,Calm,-,N/A,,Clear,0,2013-08-19 06:35:00
2:55 AM,61.2,61.2,100,30.20,1.2,Calm,Calm,-,N/A,,Mist,0,2013-08-19 06:55:00
3:15 AM,59.9,59.9,100,30.20,2.0,Calm,Calm,-,N/A,,Clear,0,2013-08-19 07:15:00
3:35 AM,59.9,59.9,100,30.21,2.0,Calm,Calm,-,N/A,,Clear,0,2013-08-19 07:35:00
3:55 AM,60.3,60.3,100,30.21,2.5,Calm,Calm,-,N/A,,Clear,0,2013-08-19 07:55:00
4:15 AM,60.6,60.6,100,30.20,1.2,Calm,Calm,-,N/A,,Mist,0,2013-08-19 08:15:00
4:35 AM,60.6,60.6,100,30.20,1.8,Calm,Calm,-,N/A,,Mist,0,2013-08-19 08:35:00
4:55 AM,60.3,60.3,100,30.20,0.2,Calm,Calm,-,N/A,Fog,Fog,0,2013-08-19 08:55:00
5:15 AM,60.8,60.8,100,30.20,0.5,Calm,Calm,-,N/A,Fog,Fog,0,2013-08-19 09:15:00
5:35 AM,59.7,59.7,100,30.20,0.8,Calm,Calm,-,N/A,,Mostly Cloudy,0,2013-08-19 09:35:00
5:55 AM,60.1,60.1,100,30.21,1.5,Calm,Calm,-,N/A,,Mostly Cloudy,0,2013-08-19 09:55:00
6:15 AM,61.0,61.0,100,30.20,5.0,Calm,Calm,-,N/A,,Scattered Clouds,0,2013-08-19 10:15:00
6:35 AM,59.9,59.9,100,30.21,1.8,Calm,Calm,-,N/A,,Scattered Clouds,0,2013-08-19 10:35:00
6:55 AM,61.2,61.2,100,30.21,5.0,Calm,Calm,-,N/A,,Scattered Clouds,0,2013-08-19 10:55:00
7:15 AM,61.2,61.2,100,30.21,2.5,Calm,Calm,-,N/A,,Scattered Clouds,0,2013-08-19 11:15:00
7:35 AM,63.0,63.0,100,30.21,3.0,Calm,Calm,-,N/A,,Scattered Clouds,0,2013-08-19 11:35:00
7:55 AM,62.4,62.4,100,30.21,2.0,Calm,Calm,-,N/A,,Light Drizzle,0,2013-08-19 11:55:00
8:15 AM,63.1,63.1,100,30.21,3.0,Calm,Calm,-,N/A,Rain,Light Rain,0,2013-08-19 12:15:00
8:35 AM,63.0,63.0,100,30.21,3.0,Calm,Calm,-,0.01,Rain,Light Rain,0,2013-08-19 12:35:00
8:55 AM,64.0,64.0,100,30.21,4.0,Calm,Calm,-,0.01,,Overcast,0,2013-08-19 12:55:00
9:15 AM,64.6,64.6,100,30.20,4.0,Calm,Calm,-,N/A,,Overcast,0,2013-08-19 13:15:00
9:35 AM,65.3,65.3,100,30.20,5.0,Calm,Calm,-,N/A,,Mostly Cloudy,0,2013-08-19 13:35:00
9:55 AM,66.4,66.4,100,30.19,5.0,Calm,Calm,-,N/A,,Overcast,0,2013-08-19 13:55:00
10:15 AM,66.4,66.4,100,30.19,7.0,Calm,Calm,-,N/A,,Overcast,0,2013-08-19 14:15:00
10:35 AM,66.7,66.7,100,30.20,7.0,Calm,Calm,-,N/A,,Overcast,0,2013-08-19 14:35:00
10:55 AM,68.0,67.3,98,30.18,10.0,SE,3.5,-,N/A,,Overcast,140,2013-08-19 14:55:00
11:15 AM,68.2,67.5,98,30.20,10.0,Calm,Calm,-,N/A,,Overcast,0,2013-08-19 15:15:00
11:35 AM,68.2,67.6,98,30.19,10.0,Calm,Calm,-,N/A,,Overcast,0,2013-08-19 15:35:00
11:55 AM,68.7,67.8,97,30.19,10.0,Calm,Calm,-,N/A,,Overcast,0,2013-08-19 15:55:00
12:15 PM,69.1,67.5,95,30.19,10.0,Calm,Calm,-,N/A,,Overcast,0,2013-08-19 16:15:00
12:35 PM,69.8,68.0,94,30.19,10.0,Calm,Calm,-,N/A,,Overcast,0,2013-08-19 16:35:00
12:55 PM,70.0,67.5,92,30.19,10.0,SW,4.6,-,N/A,,Overcast,220,2013-08-19 16:55:00
1:15 PM,70.3,67.6,91,30.18,10.0,SW,3.5,-,N/A,,Overcast,230,2013-08-19 17:15:00
1:35 PM,70.7,68.0,91,30.19,10.0,SW,4.6,-,N/A,,Overcast,220,2013-08-19 17:35:00
1:55 PM,70.7,68.0,91,30.18,10.0,South,5.8,-,N/A,,Overcast,170,2013-08-19 17:55:00
2:15 PM,70.9,68.2,91,30.18,10.0,Calm,Calm,-,N/A,,Overcast,0,2013-08-19 18:15:00
2:35 PM,72.0,68.4,88,30.17,10.0,SSE,4.6,-,N/A,,Overcast,160,2013-08-19 18:35:00
2:55 PM,71.6,68.0,88,30.16,10.0,SSW,3.5,-,N/A,,Overcast,210,2013-08-19 18:55:00
3:15 PM,71.6,68.4,89,30.15,10.0,Calm,Calm,-,N/A,,Overcast,0,2013-08-19 19:15:00
3:35 PM,72.0,68.5,89,30.15,10.0,West,3.5,-,N/A,,Overcast,270,2013-08-19 19:35:00
3:55 PM,72.1,68.9,89,30.15,10.0,Calm,Calm,-,N/A,,Overcast,0,2013-08-19 19:55:00
4:15 PM,72.1,68.4,88,30.15,10.0,West,3.5,-,N/A,,Overcast,260,2013-08-19 20:15:00
4:35 PM,72.5,69.1,89,30.15,10.0,Calm,Calm,-,N/A,,Overcast,0,2013-08-19 20:35:00
4:55 PM,72.5,68.9,88,30.15,10.0,Calm,Calm,-,N/A,,Overcast,0,2013-08-19 20:55:00
5:15 PM,73.4,69.3,87,30.14,10.0,Calm,Calm,-,N/A,,Overcast,0,2013-08-19 21:15:00
5:35 PM,73.4,69.3,87,30.14,10.0,Calm,Calm,-,N/A,,Overcast,0,2013-08-19 21:35:00
5:55 PM,73.4,70.0,89,30.14,10.0,Calm,Calm,-,N/A,,Overcast,0,2013-08-19 21:55:00
6:15 PM,73.4,69.6,88,30.13,10.0,Calm,Calm,-,N/A,,Overcast,0,2013-08-19 22:15:00
6:35 PM,73.4,69.8,88,30.13,10.0,Calm,Calm,-,N/A,,Overcast,0,2013-08-19 22:35:00
6:55 PM,73.4,70.0,89,30.13,10.0,Calm,Calm,-,N/A,,Overcast,0,2013-08-19 22:55:00
7:15 PM,72.1,70.2,93,30.13,10.0,Calm,Calm,-,N/A,,Overcast,0,2013-08-19 23:15:00
7:35 PM,72.1,70.7,95,30.13,10.0,Calm,Calm,-,N/A,,Overcast,0,2013-08-19 23:35:00
7:55 PM,72.0,70.5,95,30.13,10.0,Calm,Calm,-,N/A,,Overcast,0,2013-08-19 23:55:00
8:15 PM,71.8,70.3,95,30.13,10.0,Calm,Calm,-,N/A,,Overcast,0,2013-08-20 00:15:00
8:35 PM,71.6,70.3,96,30.14,10.0,Calm,Calm,-,N/A,,Overcast,0,2013-08-20 00:35:00
8:55 PM,70.9,70.9,100,30.15,10.0,Calm,Calm,-,N/A,,Overcast,0,2013-08-20 00:55:00
9:15 PM,70.3,70.3,100,30.16,10.0,Calm,Calm,-,N/A,,Overcast,0,2013-08-20 01:15:00
9:35 PM,70.9,70.9,100,30.16,10.0,Calm,Calm,-,N/A,,Overcast,0,2013-08-20 01:35:00
9:55 PM,70.2,70.2,100,30.16,10.0,Calm,Calm,-,N/A,,Overcast,0,2013-08-20 01:55:00
10:15 PM,70.3,70.3,100,30.16,10.0,Calm,Calm,-,N/A,,Overcast,0,2013-08-20 02:15:00
10:35 PM,70.3,70.3,100,30.16,10.0,Calm,Calm,-,N/A,,Overcast,0,2013-08-20 02:35:00
10:55 PM,70.7,70.7,100,30.16,10.0,Calm,Calm,-,N/A,,Overcast,0,2013-08-20 02:55:00
11:15 PM,70.2,70.2,100,30.16,10.0,Calm,Calm,-,N/A,,Overcast,0,2013-08-20 03:15:00
11:35 PM,70.0,70.0,100,30.16,7.0,Calm,Calm,-,N/A,,Overcast,0,2013-08-20 03:35:00
11:55 PM,70.0,70.0,100,30.17,7.0,Calm,Calm,-,N/A,,Overcast,0,2013-08-20 03:55:00